createdAt,value
2018-10-06T00:00:20.599Z,12.30
2018-10-06T00:02:49.050Z,12.30
2018-10-06T00:05:17.518Z,12.30
2018-10-06T00:07:46.099Z,12.30
2018-10-06T00:10:14.558Z,12.30
2018-10-06T00:12:43.001Z,12.40
2018-10-06T00:15:11.551Z,12.30
2018-10-06T00:17:40.201Z,12.30
2018-10-06T00:20:09.105Z,12.30
2018-10-06T00:22:37.551Z,12.30
2018-10-06T00:25:06.208Z,12.30
2018-10-06T00:27:34.891Z,12.30
2018-10-06T00:30:03.683Z,12.30
2018-10-06T00:32:32.093Z,12.30
2018-10-06T00:35:00.706Z,12.30
2018-10-06T00:37:29.198Z,12.20
2018-10-06T00:39:57.740Z,12.20
2018-10-06T00:42:26.318Z,12.20
2018-10-06T00:44:54.782Z,12.20
2018-10-06T00:47:23.346Z,12.20
2018-10-06T00:49:51.988Z,12.20
2018-10-06T00:52:20.457Z,12.10
2018-10-06T00:54:49.015Z,12.00
2018-10-06T00:57:17.425Z,12.00
2018-10-06T00:59:45.948Z,12.00
2018-10-06T01:02:14.367Z,12.10
2018-10-06T01:04:42.807Z,12.10
2018-10-06T01:07:11.388Z,12.10
2018-10-06T01:09:40.003Z,12.10
2018-10-06T01:12:08.508Z,12.10
2018-10-06T01:14:36.999Z,12.10
2018-10-06T01:17:05.448Z,12.10
2018-10-06T01:19:35.535Z,12.10
2018-10-06T01:22:04.189Z,12.10
2018-10-06T01:24:32.637Z,12.10
2018-10-06T01:27:01.044Z,12.10
2018-10-06T01:29:32.303Z,12.10
2018-10-06T01:32:02.300Z,12.10
2018-10-06T01:34:30.742Z,12.00
2018-10-06T01:36:59.528Z,12.00
2018-10-06T01:39:27.983Z,12.10
2018-10-06T01:41:56.441Z,12.10
2018-10-06T01:44:24.888Z,12.10
2018-10-06T01:46:53.490Z,12.10
2018-10-06T01:49:22.297Z,12.00
2018-10-06T01:51:51.046Z,12.00
2018-10-06T01:54:26.032Z,11.90
2018-10-06T01:56:54.547Z,11.90
2018-10-06T01:59:23.035Z,11.90
2018-10-06T02:01:51.522Z,11.90
2018-10-06T02:04:24.041Z,12.00
2018-10-06T02:06:52.968Z,11.90
2018-10-06T02:09:21.414Z,11.90
2018-10-06T02:11:50.064Z,11.90
2018-10-06T02:14:18.507Z,11.90
2018-10-06T02:16:47.206Z,11.90
2018-10-06T02:19:15.806Z,11.80
2018-10-06T02:21:44.366Z,11.80
2018-10-06T02:24:13.015Z,11.90
2018-10-06T02:26:41.498Z,11.90
2018-10-06T02:29:10.107Z,11.90
2018-10-06T02:31:38.532Z,11.80
2018-10-06T02:34:07.171Z,11.80
2018-10-06T02:36:35.714Z,11.90
2018-10-06T02:39:04.976Z,11.90
2018-10-06T02:41:33.415Z,11.90
2018-10-06T02:44:01.859Z,11.90
2018-10-06T02:46:30.347Z,11.90
2018-10-06T02:48:59.930Z,11.90
2018-10-06T02:51:28.477Z,11.90
2018-10-06T02:53:57.009Z,11.90
2018-10-06T02:56:25.426Z,11.80
2018-10-06T02:58:53.912Z,11.80
2018-10-06T03:01:22.580Z,11.80
2018-10-06T03:03:51.060Z,11.80
2018-10-06T03:06:19.573Z,11.80
2018-10-06T03:08:48.048Z,11.70
2018-10-06T03:11:16.506Z,11.70
2018-10-06T03:13:44.969Z,11.70
2018-10-06T03:16:13.443Z,11.70
2018-10-06T03:18:41.941Z,11.70
2018-10-06T03:21:10.533Z,11.70
2018-10-06T03:23:39.022Z,11.70
2018-10-06T03:26:07.461Z,11.70
2018-10-06T03:28:35.913Z,11.70
2018-10-06T03:31:04.714Z,11.80
2018-10-06T03:33:33.328Z,11.80
2018-10-06T03:36:02.004Z,11.80
2018-10-06T03:38:30.461Z,11.80
2018-10-06T03:40:58.984Z,11.80
2018-10-06T03:43:27.499Z,11.80
2018-10-06T03:45:55.947Z,11.20
2018-10-06T03:48:24.442Z,11.90
2018-10-06T03:50:52.873Z,12.00
2018-10-06T03:53:21.422Z,12.00
2018-10-06T03:55:50.143Z,12.00
2018-10-06T03:58:18.614Z,11.90
2018-10-06T04:00:47.066Z,11.90
2018-10-06T04:03:15.620Z,11.90
2018-10-06T04:05:44.096Z,11.90
2018-10-06T04:08:12.590Z,11.90
2018-10-06T04:10:41.053Z,11.90
2018-10-06T04:13:09.966Z,11.90
2018-10-06T04:15:38.433Z,11.90
2018-10-06T04:18:07.094Z,11.90
2018-10-06T04:20:35.504Z,11.90
2018-10-06T04:23:03.989Z,11.90
2018-10-06T04:25:32.466Z,11.90
2018-10-06T04:28:01.082Z,11.90
2018-10-06T04:30:29.515Z,11.90
2018-10-06T04:32:57.983Z,11.90
2018-10-06T04:35:26.476Z,11.90
2018-10-06T04:37:54.908Z,11.90
2018-10-06T04:40:23.384Z,11.90
2018-10-06T04:42:51.889Z,11.90
2018-10-06T04:45:20.632Z,11.90
2018-10-06T04:47:49.071Z,11.90
2018-10-06T04:50:17.561Z,11.80
2018-10-06T04:52:46.044Z,11.80
2018-10-06T04:55:14.519Z,11.90
2018-10-06T04:57:42.948Z,11.80
2018-10-06T05:00:11.621Z,11.80
2018-10-06T05:02:40.175Z,11.80
2018-10-06T05:05:08.650Z,11.80
2018-10-06T05:07:37.132Z,11.80
2018-10-06T05:10:05.580Z,11.90
2018-10-06T05:12:34.059Z,11.80
2018-10-06T05:15:02.532Z,11.90
2018-10-06T05:17:31.318Z,11.90
2018-10-06T05:19:59.773Z,12.00
2018-10-06T05:22:28.200Z,12.00
2018-10-06T05:24:56.723Z,12.00
2018-10-06T05:27:31.534Z,12.00
2018-10-06T05:30:00.116Z,12.10
2018-10-06T05:32:28.827Z,12.10
2018-10-06T05:34:57.294Z,12.10
2018-10-06T05:37:25.700Z,12.10
2018-10-06T05:39:54.140Z,12.20
2018-10-06T05:42:22.597Z,12.20
2018-10-06T05:44:51.097Z,12.20
2018-10-06T05:47:19.500Z,12.20
2018-10-06T05:49:47.959Z,12.20
2018-10-06T05:52:16.474Z,12.30
2018-10-06T05:54:45.125Z,12.30
2018-10-06T05:57:13.607Z,12.30
2018-10-06T05:59:42.083Z,12.40
2018-10-06T06:02:10.868Z,12.40
2018-10-06T06:04:39.560Z,12.40
2018-10-06T06:07:08.356Z,12.40
2018-10-06T06:09:36.950Z,12.50
2018-10-06T06:12:05.397Z,12.50
2018-10-06T06:14:33.880Z,12.50
2018-10-06T06:17:02.325Z,12.60
2018-10-06T06:19:30.803Z,12.60
2018-10-06T06:21:59.265Z,12.60
2018-10-06T06:24:27.691Z,12.70
2018-10-06T06:26:56.154Z,12.80
2018-10-06T06:29:24.569Z,12.80
2018-10-06T06:31:53.063Z,12.80
2018-10-06T06:34:21.674Z,12.90
2018-10-06T06:36:50.146Z,12.90
2018-10-06T06:39:18.588Z,12.90
2018-10-06T06:41:47.040Z,13.00
2018-10-06T06:44:15.971Z,13.00
2018-10-06T06:46:44.571Z,13.10
2018-10-06T06:49:13.441Z,13.20
2018-10-06T06:51:41.991Z,13.30
2018-10-06T06:54:10.487Z,13.40
2018-10-06T06:56:39.034Z,13.50
2018-10-06T06:59:07.444Z,13.70
2018-10-06T07:01:35.912Z,13.80
2018-10-06T07:04:04.404Z,13.90
2018-10-06T07:06:32.866Z,14.10
2018-10-06T07:09:01.298Z,14.20
2018-10-06T07:11:29.758Z,14.40
2018-10-06T07:13:58.225Z,14.40
2018-10-06T07:16:26.824Z,14.50
2018-10-06T07:18:55.285Z,14.60
2018-10-06T07:21:23.851Z,14.60
2018-10-06T07:23:52.327Z,14.70
2018-10-06T07:26:20.841Z,14.80
2018-10-06T07:28:49.316Z,14.80
2018-10-06T07:31:17.762Z,14.90
2018-10-06T07:33:46.226Z,14.90
2018-10-06T07:36:14.664Z,15.00
2018-10-06T07:38:43.100Z,15.10
2018-10-06T07:41:11.738Z,15.20
2018-10-06T07:43:40.210Z,15.30
2018-10-06T07:46:08.786Z,15.50
2018-10-06T07:48:37.341Z,15.60
2018-10-06T07:51:05.922Z,15.70
2018-10-06T07:53:34.383Z,15.80
2018-10-06T07:56:02.839Z,16.00
2018-10-06T07:58:31.287Z,16.10
2018-10-06T08:00:59.755Z,16.30
2018-10-06T08:03:28.236Z,16.50
2018-10-06T08:05:56.647Z,16.70
2018-10-06T08:08:25.094Z,16.90
2018-10-06T08:10:53.538Z,17.00
2018-10-06T08:13:22.151Z,17.20
2018-10-06T08:15:50.570Z,17.40
2018-10-06T08:18:19.197Z,17.50
2018-10-06T08:20:47.839Z,17.70
2018-10-06T08:23:16.363Z,17.90
2018-10-06T08:25:44.885Z,18.00
2018-10-06T08:28:13.678Z,18.00
2018-10-06T08:30:42.178Z,18.20
2018-10-06T08:33:10.810Z,18.30
2018-10-06T08:35:39.356Z,18.40
2018-10-06T08:38:07.986Z,18.30
2018-10-06T08:40:36.490Z,18.30
2018-10-06T08:43:04.988Z,18.20
2018-10-06T08:45:33.449Z,18.20
2018-10-06T08:48:02.201Z,18.20
2018-10-06T08:50:30.657Z,18.10
2018-10-06T08:52:59.548Z,18.20
2018-10-06T08:55:27.965Z,18.10
2018-10-06T08:57:56.638Z,18.20
2018-10-06T09:00:25.127Z,18.10
2018-10-06T09:02:53.645Z,18.20
2018-10-06T09:05:22.323Z,18.20
2018-10-06T09:07:51.341Z,18.30
2018-10-06T09:10:19.807Z,18.40
2018-10-06T09:12:48.367Z,18.60
2018-10-06T09:15:16.934Z,18.90
2018-10-06T09:17:45.475Z,19.10
2018-10-06T09:20:14.228Z,19.30
2018-10-06T09:22:42.835Z,19.40
2018-10-06T09:25:11.358Z,19.50
2018-10-06T09:27:39.824Z,19.60
2018-10-06T09:30:08.893Z,19.70
2018-10-06T09:32:37.772Z,19.80
2018-10-06T09:35:07.009Z,20.00
2018-10-06T09:37:35.502Z,20.00
2018-10-06T09:40:03.995Z,20.10
2018-10-06T09:42:32.569Z,20.10
2018-10-06T09:45:01.503Z,20.00
2018-10-06T09:47:29.997Z,20.20
2018-10-06T09:49:58.493Z,20.40
2018-10-06T09:52:26.988Z,20.40
2018-10-06T09:54:55.471Z,20.40
2018-10-06T09:57:24.304Z,20.50
2018-10-06T09:59:55.588Z,20.50
2018-10-06T10:02:29.701Z,20.40
2018-10-06T10:05:03.582Z,20.40
2018-10-06T10:07:33.980Z,20.40
2018-10-06T10:10:03.287Z,20.50
2018-10-06T10:12:31.822Z,20.50
2018-10-06T10:15:00.297Z,20.60
2018-10-06T10:17:28.800Z,20.50
2018-10-06T10:19:57.510Z,20.60
2018-10-06T10:22:26.280Z,20.60
2018-10-06T10:24:54.835Z,20.70
2018-10-06T10:27:23.386Z,20.70
2018-10-06T10:29:51.900Z,20.70
2018-10-06T10:32:20.343Z,20.80
2018-10-06T10:34:48.829Z,20.90
2018-10-06T10:37:17.538Z,21.00
2018-10-06T10:39:47.591Z,21.10
2018-10-06T10:42:16.179Z,21.20
2018-10-06T10:44:44.711Z,21.30
2018-10-06T10:47:13.219Z,21.30
2018-10-06T10:49:41.665Z,21.40
2018-10-06T10:52:10.106Z,21.50
2018-10-06T10:54:38.726Z,21.40
2018-10-06T10:57:07.284Z,21.40
2018-10-06T10:59:36.276Z,21.40
2018-10-06T11:02:04.814Z,21.40
2018-10-06T11:04:33.483Z,21.30
2018-10-06T11:07:02.131Z,21.30
2018-10-06T11:09:30.615Z,21.20
2018-10-06T11:11:59.159Z,21.20
2018-10-06T11:14:27.802Z,21.20
2018-10-06T11:16:56.241Z,21.30
2018-10-06T11:19:24.742Z,21.30
2018-10-06T11:21:53.256Z,21.40
2018-10-06T11:24:21.716Z,21.50
2018-10-06T11:26:50.255Z,21.70
2018-10-06T11:29:18.856Z,21.80
2018-10-06T11:31:47.609Z,22.00
2018-10-06T11:34:16.037Z,22.20
2018-10-06T11:36:44.487Z,22.30
2018-10-06T11:39:12.939Z,22.40
2018-10-06T11:41:41.719Z,22.50
2018-10-06T11:44:10.135Z,22.50
2018-10-06T11:46:39.173Z,22.60
2018-10-06T11:49:07.869Z,22.70
2018-10-06T11:51:36.388Z,22.60
2018-10-06T11:54:04.898Z,22.70
2018-10-06T11:56:33.509Z,22.70
2018-10-06T11:59:01.976Z,22.60
2018-10-06T12:01:30.643Z,22.60
2018-10-06T12:03:59.073Z,22.60
2018-10-06T12:06:27.680Z,22.60
2018-10-06T12:08:56.163Z,22.50
2018-10-06T12:11:24.779Z,22.60
2018-10-06T12:13:53.585Z,22.50
2018-10-06T12:16:22.071Z,22.70
2018-10-06T12:18:50.842Z,22.80
2018-10-06T12:21:19.609Z,23.00
2018-10-06T12:23:48.723Z,23.00
2018-10-06T12:26:17.213Z,23.10
2018-10-06T12:28:45.663Z,23.20
2018-10-06T12:31:14.097Z,23.50
2018-10-06T12:33:43.210Z,23.70
2018-10-06T12:36:11.964Z,24.10
2018-10-06T12:38:40.394Z,24.40
2018-10-06T12:41:09.742Z,24.60
2018-10-06T12:43:38.812Z,25.00
2018-10-06T12:46:07.858Z,25.40
2018-10-06T12:48:36.845Z,25.40
2018-10-06T12:51:05.959Z,25.60
2018-10-06T12:53:34.951Z,25.60
2018-10-06T12:56:10.794Z,25.70
2018-10-06T12:58:39.811Z,25.60
2018-10-06T13:01:09.051Z,25.50
2018-10-06T13:03:38.091Z,25.50
2018-10-06T13:06:07.293Z,25.30
2018-10-06T13:08:36.454Z,25.00
2018-10-06T13:11:05.510Z,25.20
2018-10-06T13:13:34.719Z,25.20
2018-10-06T13:16:03.808Z,25.20
2018-10-06T13:18:32.844Z,24.90
2018-10-06T13:21:01.927Z,24.70
2018-10-06T13:23:30.913Z,24.40
2018-10-06T13:26:01.528Z,24.20
2018-10-06T13:28:30.924Z,24.00
2018-10-06T13:31:00.246Z,23.90
2018-10-06T13:33:29.264Z,24.10
2018-10-06T13:35:58.297Z,24.60
2018-10-06T13:38:27.609Z,25.20
2018-10-06T13:40:56.748Z,25.60
2018-10-06T13:43:25.874Z,26.10
2018-10-06T13:45:54.889Z,26.60
2018-10-06T13:48:24.305Z,27.30
2018-10-06T13:50:53.361Z,28.00
2018-10-06T13:53:22.416Z,29.10
2018-10-06T13:55:51.509Z,30.40
2018-10-06T13:58:20.617Z,31.50
2018-10-06T14:00:49.865Z,32.40
2018-10-06T14:03:19.312Z,33.60
2018-10-06T14:05:48.335Z,34.60
2018-10-06T14:08:17.413Z,35.50
2018-10-06T14:10:46.383Z,35.80
2018-10-06T14:13:15.497Z,36.60
2018-10-06T14:15:44.542Z,36.80
2018-10-06T14:18:13.581Z,36.80
2018-10-06T14:20:42.596Z,37.00
2018-10-06T14:23:11.836Z,37.30
2018-10-06T14:25:40.952Z,37.10
2018-10-06T14:28:10.204Z,37.00
2018-10-06T14:30:39.244Z,37.10
2018-10-06T14:33:08.329Z,36.30
2018-10-06T14:35:37.340Z,36.70
2018-10-06T14:38:06.426Z,37.20
2018-10-06T14:40:35.958Z,37.50
2018-10-06T14:43:05.350Z,37.50
2018-10-06T14:45:34.442Z,37.20
2018-10-06T14:48:03.695Z,37.00
2018-10-06T14:50:35.873Z,37.00
2018-10-06T14:53:05.489Z,37.10
2018-10-06T14:55:34.514Z,37.20
2018-10-06T14:58:04.835Z,37.30
2018-10-06T15:00:33.902Z,37.70
2018-10-06T15:03:02.937Z,37.60
2018-10-06T15:05:31.963Z,38.00
2018-10-06T15:08:01.396Z,37.70
2018-10-06T15:10:30.491Z,37.40
2018-10-06T15:12:59.600Z,37.10
2018-10-06T15:15:28.910Z,36.70
2018-10-06T15:17:58.624Z,36.90
2018-10-06T15:20:27.752Z,36.70
2018-10-06T15:22:57.122Z,35.90
2018-10-06T15:25:26.288Z,35.00
2018-10-06T15:27:56.018Z,33.60
2018-10-06T15:30:25.475Z,32.60
2018-10-06T15:32:54.548Z,31.50
2018-10-06T15:35:24.241Z,30.20
2018-10-06T15:37:53.573Z,28.80
2018-10-06T15:40:26.787Z,27.70
2018-10-06T15:42:56.015Z,26.70
2018-10-06T15:45:25.630Z,25.90
2018-10-06T15:47:54.759Z,25.30
2018-10-06T15:50:23.859Z,24.70
2018-10-06T15:52:53.339Z,24.10
2018-10-06T15:55:22.663Z,23.60
2018-10-06T15:57:52.135Z,23.30
2018-10-06T16:00:20.990Z,22.90
2018-10-06T16:02:50.104Z,22.60
2018-10-06T16:05:19.108Z,22.40
2018-10-06T16:07:47.798Z,22.20
2018-10-06T16:10:16.237Z,22.00
2018-10-06T16:12:44.668Z,21.90
2018-10-06T16:15:13.068Z,21.70
2018-10-06T16:17:42.494Z,21.50
2018-10-06T16:20:11.161Z,21.40
2018-10-06T16:22:39.631Z,21.20
2018-10-06T16:25:08.102Z,21.10
2018-10-06T16:27:36.657Z,20.90
2018-10-06T16:30:06.434Z,20.10
2018-10-06T16:32:35.314Z,20.70
2018-10-06T16:35:04.186Z,20.60
2018-10-06T16:37:33.626Z,20.40
2018-10-06T16:40:02.100Z,20.40
2018-10-06T16:42:30.562Z,20.30
2018-10-06T16:44:59.143Z,20.20
2018-10-06T16:47:27.682Z,20.00
2018-10-06T16:49:56.198Z,20.00
2018-10-06T16:52:24.698Z,19.90
2018-10-06T16:54:53.156Z,19.80
2018-10-06T16:57:21.870Z,19.70
2018-10-06T16:59:52.182Z,19.60
2018-10-06T17:02:20.964Z,19.50
2018-10-06T17:04:49.750Z,19.40
2018-10-06T17:07:18.297Z,19.30
2018-10-06T17:09:46.756Z,19.30
2018-10-06T17:12:15.225Z,19.20
2018-10-06T17:14:43.842Z,19.10
2018-10-06T17:17:12.280Z,19.00
2018-10-06T17:19:40.902Z,19.00
2018-10-06T17:22:09.345Z,19.00
2018-10-06T17:24:37.952Z,18.90
2018-10-06T17:27:06.634Z,18.90
2018-10-06T17:29:35.189Z,18.90
2018-10-06T17:32:03.732Z,18.90
2018-10-06T17:34:34.827Z,18.90
2018-10-06T17:37:03.471Z,18.90
2018-10-06T17:39:31.955Z,18.90
2018-10-06T17:42:00.438Z,18.80
2018-10-06T17:44:32.860Z,18.80
2018-10-06T17:47:01.437Z,18.90
2018-10-06T17:49:30.061Z,18.80
2018-10-06T17:51:58.568Z,18.80
2018-10-06T17:54:28.560Z,18.80
2018-10-06T17:56:57.043Z,18.70
2018-10-06T17:59:25.510Z,18.70
2018-10-06T18:01:54.174Z,18.70
2018-10-06T18:04:22.714Z,18.70
2018-10-06T18:06:51.407Z,18.70
2018-10-06T18:09:19.988Z,18.70
2018-10-06T18:11:48.458Z,18.70
2018-10-06T18:14:17.026Z,18.70
2018-10-06T18:16:45.655Z,18.70
2018-10-06T18:19:14.255Z,18.60
2018-10-06T18:21:42.712Z,18.60
2018-10-06T18:24:11.176Z,18.60
2018-10-06T18:26:39.603Z,18.60
2018-10-06T18:29:08.101Z,18.60
2018-10-06T18:31:36.771Z,18.60
2018-10-06T18:34:05.251Z,18.60
2018-10-06T18:36:34.096Z,18.50
2018-10-06T18:39:02.887Z,18.50
2018-10-06T18:41:31.345Z,18.50
2018-10-06T18:43:59.800Z,18.50
2018-10-06T18:46:28.379Z,18.50
2018-10-06T18:48:56.910Z,18.50
2018-10-06T18:51:25.378Z,18.40
2018-10-06T18:53:53.854Z,18.40
2018-10-06T18:56:22.286Z,18.40
2018-10-06T18:58:50.955Z,18.40
2018-10-06T19:01:19.671Z,18.40
2018-10-06T19:03:48.365Z,18.40
2018-10-06T19:06:16.889Z,18.40
2018-10-06T19:08:45.496Z,18.30
2018-10-06T19:11:20.717Z,18.30
2018-10-06T19:13:49.183Z,17.60
2018-10-06T19:16:17.884Z,18.30
2018-10-06T19:18:46.627Z,17.90
2018-10-06T19:21:15.171Z,18.30
2018-10-06T19:23:43.970Z,18.20
2018-10-06T19:28:47.251Z,18.20
2018-10-06T19:31:15.857Z,18.20
2018-10-06T19:33:44.348Z,18.10
2018-10-06T19:36:12.930Z,18.10
2018-10-06T19:38:41.587Z,18.10
2018-10-06T19:41:10.037Z,18.10
2018-10-06T19:43:38.571Z,18.10
2018-10-06T19:46:07.093Z,18.10
2018-10-06T19:48:35.713Z,18.10
2018-10-06T19:51:04.285Z,18.10
2018-10-06T19:53:32.744Z,18.10
2018-10-06T19:56:01.244Z,18.10
2018-10-06T19:58:36.466Z,18.00
2018-10-06T20:01:05.274Z,18.00
2018-10-06T20:03:34.047Z,18.00
2018-10-06T20:06:05.838Z,18.00
2018-10-06T20:08:37.130Z,18.00
2018-10-06T20:11:06.137Z,17.90
2018-10-06T20:13:34.601Z,17.90
2018-10-06T20:16:03.129Z,17.90
2018-10-06T20:18:31.611Z,17.90
2018-10-06T20:21:00.141Z,17.90
2018-10-06T20:23:28.560Z,17.90
2018-10-06T20:25:57.370Z,17.90
2018-10-06T20:28:25.848Z,17.90
2018-10-06T20:30:54.734Z,17.80
2018-10-06T20:33:25.696Z,17.80
2018-10-06T20:35:54.181Z,17.80
2018-10-06T20:38:22.636Z,17.80
2018-10-06T20:40:51.435Z,17.80
2018-10-06T20:43:20.424Z,17.80
2018-10-06T20:45:49.310Z,17.70
2018-10-06T20:48:17.811Z,17.70
2018-10-06T20:50:46.347Z,17.70
2018-10-06T20:53:15.891Z,17.70
2018-10-06T20:55:44.720Z,17.60
2018-10-06T20:58:13.315Z,17.60
2018-10-06T21:00:41.783Z,17.60
2018-10-06T21:03:10.267Z,17.60
2018-10-06T21:05:38.900Z,17.60
2018-10-06T21:08:07.376Z,17.60
2018-10-06T21:10:35.994Z,17.60
2018-10-06T21:13:04.507Z,17.60
2018-10-06T21:15:33.102Z,17.70
2018-10-06T21:18:01.667Z,17.70
2018-10-06T21:20:30.280Z,17.70
2018-10-06T21:22:58.850Z,17.70
2018-10-06T21:25:27.473Z,17.70
2018-10-06T21:27:56.018Z,17.70
2018-10-06T21:30:24.636Z,17.70
2018-10-06T21:32:53.181Z,17.70
2018-10-06T21:35:21.781Z,17.80
2018-10-06T21:37:50.387Z,17.80
2018-10-06T21:40:18.831Z,17.80
2018-10-06T21:42:47.488Z,17.80
2018-10-06T21:45:16.053Z,17.80
2018-10-06T21:47:44.557Z,17.80
2018-10-06T21:50:13.403Z,17.80
2018-10-06T21:52:42.073Z,17.80
2018-10-06T21:55:10.648Z,17.80
2018-10-06T21:57:39.972Z,17.80
2018-10-06T22:00:09.435Z,17.70
2018-10-06T22:02:38.002Z,17.70
2018-10-06T22:05:06.574Z,17.70
2018-10-06T22:07:35.438Z,17.70
2018-10-06T22:10:04.134Z,17.60
2018-10-06T22:12:32.711Z,17.60
2018-10-06T22:15:01.495Z,17.60
2018-10-06T22:17:29.967Z,17.60
2018-10-06T22:19:58.430Z,17.60
2018-10-06T22:22:26.919Z,17.50
2018-10-06T22:24:55.768Z,17.50
2018-10-06T22:27:25.316Z,17.50
2018-10-06T22:29:54.160Z,17.50
2018-10-06T22:32:22.618Z,17.40
2018-10-06T22:34:51.245Z,17.40
2018-10-06T22:37:19.809Z,17.30
2018-10-06T22:39:48.933Z,17.30
2018-10-06T22:42:17.866Z,17.30
2018-10-06T22:44:46.388Z,17.20
2018-10-06T22:47:15.023Z,17.20
2018-10-06T22:49:43.670Z,17.10
2018-10-06T22:52:12.175Z,17.10
2018-10-06T22:54:40.748Z,17.10
2018-10-06T22:57:09.274Z,17.00
2018-10-06T22:59:37.871Z,17.00
2018-10-06T23:02:06.549Z,17.00
2018-10-06T23:04:35.229Z,17.00
2018-10-06T23:07:03.952Z,17.00
2018-10-06T23:09:32.440Z,17.00
2018-10-06T23:12:00.994Z,16.90
2018-10-06T23:14:29.608Z,16.90
2018-10-06T23:16:58.230Z,16.90
2018-10-06T23:19:26.742Z,16.90
2018-10-06T23:21:55.262Z,16.90
2018-10-06T23:24:24.058Z,16.90
2018-10-06T23:26:52.684Z,16.90
2018-10-06T23:29:21.141Z,16.90
2018-10-06T23:31:49.617Z,16.80
2018-10-06T23:34:18.143Z,16.80
2018-10-06T23:36:46.769Z,16.80
2018-10-06T23:39:15.337Z,16.70
2018-10-06T23:41:43.733Z,16.70
2018-10-06T23:44:12.299Z,16.70
2018-10-06T23:46:40.743Z,16.70
2018-10-06T23:49:09.648Z,16.60
2018-10-06T23:51:38.141Z,16.60
2018-10-06T23:54:07.388Z,16.60
2018-10-06T23:56:35.974Z,16.60
2018-10-06T23:59:04.528Z,16.50
